Deunquat, Ohio
Current Conditions -  °F | °C
As of 2:53 PM on Sunday 23 Nov 2014 (Local Time) from KMNN Reporting Station
Overcast Overcast  
Wind Chill: 60°   Ceiling: 6000
Heat Index: 60°   Visibility: 10mi
Dew Point: 43°   Wind: 12mph
Humidity: 53%   Direction: 150°SSE
Pressure: 29.74"   Gusts: NA
Location:  40.948°N, 83.1346°W
Report Text: KMNN 231953Z AUTO 15010KT 10SM SCT046 OVC060 16/06 A2974 RMK AO2 SLP073 T01560061 TSNO
Loading
Personal Weather Stations






























Interactive Weather Map New forecast layout! Learn more

10-Day Weather Forecast

Advertisements
Track Severe Weather on mobile